sensor_id;sensor_type;location;lat;lon;timestamp;pressure;altitude;pressure_sealevel;temperature
8227;BMP180;4154;48.810;9.012;2022-12-18T00:01:33;97953.00;;;-9.10
8227;BMP180;4154;48.810;9.012;2022-12-18T00:04:01;97946.00;;;-9.00
8227;BMP180;4154;48.810;9.012;2022-12-18T00:06:32;97950.00;;;-9.10
8227;BMP180;4154;48.810;9.012;2022-12-18T00:09:02;97958.00;;;-9.30
8227;BMP180;4154;48.810;9.012;2022-12-18T00:11:30;97960.00;;;-9.40
8227;BMP180;4154;48.810;9.012;2022-12-18T00:13:58;97953.00;;;-9.40
8227;BMP180;4154;48.810;9.012;2022-12-18T00:16:26;97959.00;;;-9.40
8227;BMP180;4154;48.810;9.012;2022-12-18T00:18:55;97964.00;;;-9.50
8227;BMP180;4154;48.810;9.012;2022-12-18T00:21:24;97968.00;;;-9.50
8227;BMP180;4154;48.810;9.012;2022-12-18T00:23:51;97956.00;;;-9.50
8227;BMP180;4154;48.810;9.012;2022-12-18T00:26:21;97959.00;;;-9.60
8227;BMP180;4154;48.810;9.012;2022-12-18T00:28:49;97951.00;;;-9.70
8227;BMP180;4154;48.810;9.012;2022-12-18T00:31:19;97946.00;;;-9.70
8227;BMP180;4154;48.810;9.012;2022-12-18T00:33:47;97963.00;;;-9.70
8227;BMP180;4154;48.810;9.012;2022-12-18T00:36:17;97961.00;;;-9.80
8227;BMP180;4154;48.810;9.012;2022-12-18T00:38:43;97946.00;;;-9.70
8227;BMP180;4154;48.810;9.012;2022-12-18T00:41:11;97960.00;;;-9.60
8227;BMP180;4154;48.810;9.012;2022-12-18T00:43:39;97969.00;;;-9.40
8227;BMP180;4154;48.810;9.012;2022-12-18T00:46:05;97966.00;;;-9.40
8227;BMP180;4154;48.810;9.012;2022-12-18T00:48:31;97965.00;;;-9.50
8227;BMP180;4154;48.810;9.012;2022-12-18T00:50:57;97966.00;;;-9.40
8227;BMP180;4154;48.810;9.012;2022-12-18T00:53:23;97962.00;;;-9.40
8227;BMP180;4154;48.810;9.012;2022-12-18T00:55:49;97965.00;;;-9.40
8227;BMP180;4154;48.810;9.012;2022-12-18T00:58:16;97965.00;;;-9.50
8227;BMP180;4154;48.810;9.012;2022-12-18T01:00:42;97967.00;;;-9.60
8227;BMP180;4154;48.810;9.012;2022-12-18T01:03:13;97967.00;;;-9.50
8227;BMP180;4154;48.810;9.012;2022-12-18T01:05:40;97970.00;;;-9.60
8227;BMP180;4154;48.810;9.012;2022-12-18T01:08:06;97956.00;;;-9.60
8227;BMP180;4154;48.810;9.012;2022-12-18T01:10:31;97962.00;;;-9.70
8227;BMP180;4154;48.810;9.012;2022-12-18T01:12:57;97968.00;;;-9.70
8227;BMP180;4154;48.810;9.012;2022-12-18T01:15:24;97953.00;;;-9.70
8227;BMP180;4154;48.810;9.012;2022-12-18T01:17:53;97960.00;;;-9.70
8227;BMP180;4154;48.810;9.012;2022-12-18T01:20:18;97955.00;;;-9.70
8227;BMP180;4154;48.810;9.012;2022-12-18T01:22:44;97968.00;;;-9.70
8227;BMP180;4154;48.810;9.012;2022-12-18T01:25:10;97977.00;;;-9.70
8227;BMP180;4154;48.810;9.012;2022-12-18T01:27:35;97964.00;;;-9.70
8227;BMP180;4154;48.810;9.012;2022-12-18T01:30:02;97957.00;;;-9.60
8227;BMP180;4154;48.810;9.012;2022-12-18T01:32:30;97961.00;;;-9.70
8227;BMP180;4154;48.810;9.012;2022-12-18T01:34:56;97961.00;;;-9.60
8227;BMP180;4154;48.810;9.012;2022-12-18T01:37:22;97968.00;;;-9.60
8227;BMP180;4154;48.810;9.012;2022-12-18T01:39:47;97970.00;;;-9.70
8227;BMP180;4154;48.810;9.012;2022-12-18T01:42:16;97965.00;;;-9.80
8227;BMP180;4154;48.810;9.012;2022-12-18T01:45:03;97970.00;;;-9.60
8227;BMP180;4154;48.810;9.012;2022-12-18T01:47:52;97973.00;;;-9.50
8227;BMP180;4154;48.810;9.012;2022-12-18T01:50:34;97969.00;;;-9.40
8227;BMP180;4154;48.810;9.012;2022-12-18T01:53:17;97957.00;;;-9.40
8227;BMP180;4154;48.810;9.012;2022-12-18T01:55:48;97957.00;;;-9.40
8227;BMP180;4154;48.810;9.012;2022-12-18T01:58:16;97960.00;;;-9.40
8227;BMP180;4154;48.810;9.012;2022-12-18T02:00:42;97954.00;;;-9.50
8227;BMP180;4154;48.810;9.012;2022-12-18T02:03:08;97948.00;;;-9.50
8227;BMP180;4154;48.810;9.012;2022-12-18T02:06:13;97959.00;;;-9.50
8227;BMP180;4154;48.810;9.012;2022-12-18T02:09:11;97965.00;;;-9.50
8227;BMP180;4154;48.810;9.012;2022-12-18T02:12:10;97962.00;;;-9.40
8227;BMP180;4154;48.810;9.012;2022-12-18T02:14:48;97971.00;;;-9.40
8227;BMP180;4154;48.810;9.012;2022-12-18T02:17:39;97964.00;;;-9.40
8227;BMP180;4154;48.810;9.012;2022-12-18T02:20:33;97963.00;;;-9.40
8227;BMP180;4154;48.810;9.012;2022-12-18T02:23:48;97956.00;;;-9.40
8227;BMP180;4154;48.810;9.012;2022-12-18T02:26:30;97966.00;;;-9.40
8227;BMP180;4154;48.810;9.012;2022-12-18T02:29:07;97972.00;;;-9.40
8227;BMP180;4154;48.810;9.012;2022-12-18T02:31:42;97969.00;;;-9.40
8227;BMP180;4154;48.810;9.012;2022-12-18T02:34:10;97969.00;;;-9.50
8227;BMP180;4154;48.810;9.012;2022-12-18T02:36:41;97970.00;;;-9.50
8227;BMP180;4154;48.810;9.012;2022-12-18T02:39:12;97962.00;;;-9.50
8227;BMP180;4154;48.810;9.012;2022-12-18T02:41:39;97971.00;;;-9.50
8227;BMP180;4154;48.810;9.012;2022-12-18T02:44:13;97978.00;;;-9.40
8227;BMP180;4154;48.810;9.012;2022-12-18T02:47:05;97964.00;;;-9.40
8227;BMP180;4154;48.810;9.012;2022-12-18T02:49:57;97969.00;;;-9.30
8227;BMP180;4154;48.810;9.012;2022-12-18T02:52:52;97971.00;;;-9.20
8227;BMP180;4154;48.810;9.012;2022-12-18T02:55:57;97977.00;;;-9.20
8227;BMP180;4154;48.810;9.012;2022-12-18T03:01:33;97975.00;;;-9.30
8227;BMP180;4154;48.810;9.012;2022-12-18T03:04:30;97969.00;;;-9.40
8227;BMP180;4154;48.810;9.012;2022-12-18T03:07:07;97980.00;;;-9.30
8227;BMP180;4154;48.810;9.012;2022-12-18T03:09:40;97977.00;;;-9.30
8227;BMP180;4154;48.810;9.012;2022-12-18T03:12:20;97986.00;;;-9.20
8227;BMP180;4154;48.810;9.012;2022-12-18T03:15:00;97994.00;;;-9.20
8227;BMP180;4154;48.810;9.012;2022-12-18T03:17:32;97994.00;;;-9.10
8227;BMP180;4154;48.810;9.012;2022-12-18T03:20:06;97985.00;;;-9.10
8227;BMP180;4154;48.810;9.012;2022-12-18T03:22:36;97986.00;;;-9.10
8227;BMP180;4154;48.810;9.012;2022-12-18T03:25:09;97989.00;;;-9.10
8227;BMP180;4154;48.810;9.012;2022-12-18T03:27:42;97999.00;;;-9.00
8227;BMP180;4154;48.810;9.012;2022-12-18T03:30:12;97993.00;;;-9.10
8227;BMP180;4154;48.810;9.012;2022-12-18T03:33:06;97987.00;;;-9.00
8227;BMP180;4154;48.810;9.012;2022-12-18T03:35:40;97998.00;;;-9.10
8227;BMP180;4154;48.810;9.012;2022-12-18T03:38:07;98003.00;;;-9.00
8227;BMP180;4154;48.810;9.012;2022-12-18T03:40:45;97992.00;;;-9.00
8227;BMP180;4154;48.810;9.012;2022-12-18T03:43:38;98000.00;;;-8.90
8227;BMP180;4154;48.810;9.012;2022-12-18T03:46:33;97997.00;;;-8.80
8227;BMP180;4154;48.810;9.012;2022-12-18T03:49:12;97997.00;;;-8.80
8227;BMP180;4154;48.810;9.012;2022-12-18T03:51:54;97998.00;;;-8.70
8227;BMP180;4154;48.810;9.012;2022-12-18T03:54:23;97995.00;;;-8.70
8227;BMP180;4154;48.810;9.012;2022-12-18T03:56:59;97981.00;;;-8.80
8227;BMP180;4154;48.810;9.012;2022-12-18T03:59:28;97987.00;;;-8.80
8227;BMP180;4154;48.810;9.012;2022-12-18T04:01:57;97981.00;;;-8.70
8227;BMP180;4154;48.810;9.012;2022-12-18T04:04:27;97988.00;;;-8.70
8227;BMP180;4154;48.810;9.012;2022-12-18T04:06:54;97984.00;;;-8.60
8227;BMP180;4154;48.810;9.012;2022-12-18T04:09:21;97985.00;;;-8.60
8227;BMP180;4154;48.810;9.012;2022-12-18T04:11:47;97992.00;;;-8.70
8227;BMP180;4154;48.810;9.012;2022-12-18T04:14:13;98005.00;;;-8.70
8227;BMP180;4154;48.810;9.012;2022-12-18T04:16:39;97999.00;;;-8.60
8227;BMP180;4154;48.810;9.012;2022-12-18T04:19:04;97986.00;;;-8.60
8227;BMP180;4154;48.810;9.012;2022-12-18T04:21:30;97985.00;;;-8.50
8227;BMP180;4154;48.810;9.012;2022-12-18T04:23:56;97986.00;;;-8.40
8227;BMP180;4154;48.810;9.012;2022-12-18T04:26:22;98000.00;;;-8.40
8227;BMP180;4154;48.810;9.012;2022-12-18T04:28:48;98009.00;;;-8.40
8227;BMP180;4154;48.810;9.012;2022-12-18T04:31:13;98003.00;;;-8.40
8227;BMP180;4154;48.810;9.012;2022-12-18T04:33:39;97996.00;;;-8.40
8227;BMP180;4154;48.810;9.012;2022-12-18T04:36:05;98004.00;;;-8.40
8227;BMP180;4154;48.810;9.012;2022-12-18T04:38:31;98017.00;;;-8.50
8227;BMP180;4154;48.810;9.012;2022-12-18T04:40:57;98002.00;;;-8.50
8227;BMP180;4154;48.810;9.012;2022-12-18T04:43:23;97992.00;;;-8.60
8227;BMP180;4154;48.810;9.012;2022-12-18T04:45:49;97988.00;;;-8.60
8227;BMP180;4154;48.810;9.012;2022-12-18T04:48:14;97991.00;;;-8.70
8227;BMP180;4154;48.810;9.012;2022-12-18T04:50:41;97974.00;;;-8.70
8227;BMP180;4154;48.810;9.012;2022-12-18T04:53:06;97973.00;;;-8.80
8227;BMP180;4154;48.810;9.012;2022-12-18T04:55:32;97972.00;;;-8.80
8227;BMP180;4154;48.810;9.012;2022-12-18T04:57:58;97969.00;;;-8.80
8227;BMP180;4154;48.810;9.012;2022-12-18T05:00:23;97982.00;;;-8.80
8227;BMP180;4154;48.810;9.012;2022-12-18T05:02:49;97974.00;;;-8.80
8227;BMP180;4154;48.810;9.012;2022-12-18T05:05:17;97981.00;;;-8.80
8227;BMP180;4154;48.810;9.012;2022-12-18T05:07:42;97976.00;;;-8.70
8227;BMP180;4154;48.810;9.012;2022-12-18T05:10:09;97973.00;;;-8.80
8227;BMP180;4154;48.810;9.012;2022-12-18T05:12:35;97987.00;;;-8.80
8227;BMP180;4154;48.810;9.012;2022-12-18T05:15:20;97991.00;;;-8.80
8227;BMP180;4154;48.810;9.012;2022-12-18T05:17:46;97989.00;;;-8.80
8227;BMP180;4154;48.810;9.012;2022-12-18T05:20:11;97988.00;;;-8.80
8227;BMP180;4154;48.810;9.012;2022-12-18T05:22:37;97996.00;;;-8.70
8227;BMP180;4154;48.810;9.012;2022-12-18T05:25:03;97995.00;;;-8.80
8227;BMP180;4154;48.810;9.012;2022-12-18T05:27:29;98004.00;;;-8.90
8227;BMP180;4154;48.810;9.012;2022-12-18T05:29:55;98008.00;;;-8.90
8227;BMP180;4154;48.810;9.012;2022-12-18T05:32:21;98017.00;;;-9.00
8227;BMP180;4154;48.810;9.012;2022-12-18T05:34:46;98016.00;;;-9.00
8227;BMP180;4154;48.810;9.012;2022-12-18T05:37:12;98025.00;;;-9.00
8227;BMP180;4154;48.810;9.012;2022-12-18T05:39:38;98007.00;;;-9.00
8227;BMP180;4154;48.810;9.012;2022-12-18T05:42:04;98015.00;;;-9.10
8227;BMP180;4154;48.810;9.012;2022-12-18T05:44:29;98011.00;;;-9.10
8227;BMP180;4154;48.810;9.012;2022-12-18T05:46:55;97996.00;;;-9.10
8227;BMP180;4154;48.810;9.012;2022-12-18T05:49:20;98001.00;;;-9.10
8227;BMP180;4154;48.810;9.012;2022-12-18T05:51:46;98008.00;;;-9.00
8227;BMP180;4154;48.810;9.012;2022-12-18T05:54:12;98002.00;;;-9.10
8227;BMP180;4154;48.810;9.012;2022-12-18T05:56:38;98000.00;;;-9.00
8227;BMP180;4154;48.810;9.012;2022-12-18T05:59:03;98014.00;;;-9.00
8227;BMP180;4154;48.810;9.012;2022-12-18T06:01:29;98024.00;;;-9.00
8227;BMP180;4154;48.810;9.012;2022-12-18T06:03:55;98014.00;;;-9.00
8227;BMP180;4154;48.810;9.012;2022-12-18T06:06:27;98011.00;;;-9.00
8227;BMP180;4154;48.810;9.012;2022-12-18T06:08:55;98010.00;;;-9.00
8227;BMP180;4154;48.810;9.012;2022-12-18T06:11:24;98009.00;;;-9.00
8227;BMP180;4154;48.810;9.012;2022-12-18T06:13:52;98014.00;;;-8.90
8227;BMP180;4154;48.810;9.012;2022-12-18T06:16:19;98017.00;;;-8.90
8227;BMP180;4154;48.810;9.012;2022-12-18T06:18:45;98014.00;;;-8.90
8227;BMP180;4154;48.810;9.012;2022-12-18T06:21:11;98013.00;;;-8.90
8227;BMP180;4154;48.810;9.012;2022-12-18T06:23:37;98008.00;;;-8.90
8227;BMP180;4154;48.810;9.012;2022-12-18T06:26:09;98024.00;;;-8.80
8227;BMP180;4154;48.810;9.012;2022-12-18T06:28:35;98016.00;;;-8.90
8227;BMP180;4154;48.810;9.012;2022-12-18T06:31:03;98022.00;;;-8.90
8227;BMP180;4154;48.810;9.012;2022-12-18T06:33:29;98036.00;;;-8.80
8227;BMP180;4154;48.810;9.012;2022-12-18T06:36:05;98037.00;;;-8.80
8227;BMP180;4154;48.810;9.012;2022-12-18T06:38:35;98027.00;;;-8.90
8227;BMP180;4154;48.810;9.012;2022-12-18T06:41:05;98028.00;;;-8.90
8227;BMP180;4154;48.810;9.012;2022-12-18T06:43:31;98026.00;;;-8.80
8227;BMP180;4154;48.810;9.012;2022-12-18T06:46:01;98032.00;;;-8.90
8227;BMP180;4154;48.810;9.012;2022-12-18T06:48:27;98032.00;;;-8.90
8227;BMP180;4154;48.810;9.012;2022-12-18T06:50:53;98027.00;;;-9.00
8227;BMP180;4154;48.810;9.012;2022-12-18T06:53:19;98041.00;;;-8.90
8227;BMP180;4154;48.810;9.012;2022-12-18T06:55:45;98045.00;;;-9.00
8227;BMP180;4154;48.810;9.012;2022-12-18T06:58:11;98046.00;;;-9.00
8227;BMP180;4154;48.810;9.012;2022-12-18T07:00:36;98039.00;;;-8.90
8227;BMP180;4154;48.810;9.012;2022-12-18T07:03:02;98039.00;;;-8.80
8227;BMP180;4154;48.810;9.012;2022-12-18T07:05:28;98049.00;;;-8.80
8227;BMP180;4154;48.810;9.012;2022-12-18T07:07:54;98055.00;;;-8.80
8227;BMP180;4154;48.810;9.012;2022-12-18T07:10:19;98053.00;;;-8.70
8227;BMP180;4154;48.810;9.012;2022-12-18T07:12:46;98055.00;;;-8.70
8227;BMP180;4154;48.810;9.012;2022-12-18T07:15:12;98062.00;;;-8.60
8227;BMP180;4154;48.810;9.012;2022-12-18T07:17:38;98052.00;;;-8.60
8227;BMP180;4154;48.810;9.012;2022-12-18T07:20:04;98062.00;;;-8.70
8227;BMP180;4154;48.810;9.012;2022-12-18T07:22:30;98060.00;;;-8.70
8227;BMP180;4154;48.810;9.012;2022-12-18T07:24:56;98053.00;;;-8.70
8227;BMP180;4154;48.810;9.012;2022-12-18T07:27:22;98054.00;;;-8.70
8227;BMP180;4154;48.810;9.012;2022-12-18T07:29:48;98070.00;;;-8.70
8227;BMP180;4154;48.810;9.012;2022-12-18T07:32:14;98069.00;;;-8.70
8227;BMP180;4154;48.810;9.012;2022-12-18T07:34:40;98072.00;;;-8.60
8227;BMP180;4154;48.810;9.012;2022-12-18T07:37:06;98065.00;;;-8.60
8227;BMP180;4154;48.810;9.012;2022-12-18T07:39:32;98068.00;;;-8.70
8227;BMP180;4154;48.810;9.012;2022-12-18T07:41:57;98064.00;;;-8.60
8227;BMP180;4154;48.810;9.012;2022-12-18T07:44:42;98062.00;;;-8.60
8227;BMP180;4154;48.810;9.012;2022-12-18T07:47:08;98068.00;;;-8.60
8227;BMP180;4154;48.810;9.012;2022-12-18T07:49:33;98069.00;;;-8.50
8227;BMP180;4154;48.810;9.012;2022-12-18T07:51:59;98071.00;;;-8.50
8227;BMP180;4154;48.810;9.012;2022-12-18T07:54:25;98072.00;;;-8.40
8227;BMP180;4154;48.810;9.012;2022-12-18T07:56:51;98071.00;;;-8.40
8227;BMP180;4154;48.810;9.012;2022-12-18T07:59:18;98081.00;;;-8.30
8227;BMP180;4154;48.810;9.012;2022-12-18T08:01:44;98075.00;;;-8.20
8227;BMP180;4154;48.810;9.012;2022-12-18T08:04:09;98073.00;;;-8.20
8227;BMP180;4154;48.810;9.012;2022-12-18T08:06:35;98064.00;;;-8.10
8227;BMP180;4154;48.810;9.012;2022-12-18T08:09:02;98076.00;;;-8.10
8227;BMP180;4154;48.810;9.012;2022-12-18T08:11:28;98070.00;;;-8.00
8227;BMP180;4154;48.810;9.012;2022-12-18T08:13:55;98078.00;;;-8.00
8227;BMP180;4154;48.810;9.012;2022-12-18T08:16:22;98080.00;;;-7.90
8227;BMP180;4154;48.810;9.012;2022-12-18T08:18:48;98080.00;;;-7.80
8227;BMP180;4154;48.810;9.012;2022-12-18T08:21:18;98079.00;;;-7.70
8227;BMP180;4154;48.810;9.012;2022-12-18T08:23:44;98069.00;;;-7.60
8227;BMP180;4154;48.810;9.012;2022-12-18T08:26:11;98082.00;;;-7.60
8227;BMP180;4154;48.810;9.012;2022-12-18T08:28:38;98091.00;;;-7.50
8227;BMP180;4154;48.810;9.012;2022-12-18T08:31:04;98080.00;;;-7.50
8227;BMP180;4154;48.810;9.012;2022-12-18T08:33:30;98092.00;;;-7.40
8227;BMP180;4154;48.810;9.012;2022-12-18T08:35:55;98086.00;;;-7.40
8227;BMP180;4154;48.810;9.012;2022-12-18T08:38:21;98085.00;;;-7.30
8227;BMP180;4154;48.810;9.012;2022-12-18T08:40:48;98085.00;;;-7.30
8227;BMP180;4154;48.810;9.012;2022-12-18T08:43:13;98096.00;;;-7.20
8227;BMP180;4154;48.810;9.012;2022-12-18T08:45:57;98085.00;;;-7.20
8227;BMP180;4154;48.810;9.012;2022-12-18T08:48:23;98083.00;;;-7.20
8227;BMP180;4154;48.810;9.012;2022-12-18T08:50:57;98097.00;;;-7.20
8227;BMP180;4154;48.810;9.012;2022-12-18T08:53:23;98091.00;;;-7.10
8227;BMP180;4154;48.810;9.012;2022-12-18T08:55:49;98085.00;;;-7.10
8227;BMP180;4154;48.810;9.012;2022-12-18T08:58:15;98093.00;;;-7.10
8227;BMP180;4154;48.810;9.012;2022-12-18T09:00:41;98079.00;;;-7.10
8227;BMP180;4154;48.810;9.012;2022-12-18T09:03:14;98076.00;;;-7.10
8227;BMP180;4154;48.810;9.012;2022-12-18T09:05:40;98079.00;;;-7.10
8227;BMP180;4154;48.810;9.012;2022-12-18T09:08:06;98077.00;;;-7.00
8227;BMP180;4154;48.810;9.012;2022-12-18T09:10:33;98069.00;;;-6.90
8227;BMP180;4154;48.810;9.012;2022-12-18T09:12:58;98080.00;;;-6.90
8227;BMP180;4154;48.810;9.012;2022-12-18T09:15:24;98066.00;;;-6.80
8227;BMP180;4154;48.810;9.012;2022-12-18T09:17:50;98066.00;;;-6.80
8227;BMP180;4154;48.810;9.012;2022-12-18T09:20:18;98066.00;;;-6.80
8227;BMP180;4154;48.810;9.012;2022-12-18T09:22:45;98068.00;;;-6.90
8227;BMP180;4154;48.810;9.012;2022-12-18T09:25:11;98061.00;;;-6.90
8227;BMP180;4154;48.810;9.012;2022-12-18T09:27:36;98053.00;;;-6.80
8227;BMP180;4154;48.810;9.012;2022-12-18T09:30:03;98059.00;;;-6.70
8227;BMP180;4154;48.810;9.012;2022-12-18T09:32:29;98063.00;;;-6.60
8227;BMP180;4154;48.810;9.012;2022-12-18T09:34:55;98057.00;;;-6.50
8227;BMP180;4154;48.810;9.012;2022-12-18T09:37:20;98069.00;;;-6.30
8227;BMP180;4154;48.810;9.012;2022-12-18T09:39:46;98064.00;;;-6.30
8227;BMP180;4154;48.810;9.012;2022-12-18T09:42:21;98061.00;;;-6.30
8227;BMP180;4154;48.810;9.012;2022-12-18T09:44:53;98059.00;;;-6.30
8227;BMP180;4154;48.810;9.012;2022-12-18T09:47:25;98056.00;;;-6.30
8227;BMP180;4154;48.810;9.012;2022-12-18T09:50:02;98063.00;;;-6.20
8227;BMP180;4154;48.810;9.012;2022-12-18T09:52:45;98065.00;;;-6.10
8227;BMP180;4154;48.810;9.012;2022-12-18T09:55:40;98052.00;;;-6.00
8227;BMP180;4154;48.810;9.012;2022-12-18T09:58:26;98066.00;;;-5.80
8227;BMP180;4154;48.810;9.012;2022-12-18T10:00:54;98063.00;;;-5.70
8227;BMP180;4154;48.810;9.012;2022-12-18T10:03:21;98062.00;;;-5.50
8227;BMP180;4154;48.810;9.012;2022-12-18T10:06:04;98059.00;;;-5.40
8227;BMP180;4154;48.810;9.012;2022-12-18T10:12:09;98063.00;;;-5.30
8227;BMP180;4154;48.810;9.012;2022-12-18T10:15:14;98077.00;;;-5.20
8227;BMP180;4154;48.810;9.012;2022-12-18T10:17:58;98083.00;;;-5.10
8227;BMP180;4154;48.810;9.012;2022-12-18T10:20:49;98082.00;;;-4.90
8227;BMP180;4154;48.810;9.012;2022-12-18T10:23:54;98082.00;;;-4.80
8227;BMP180;4154;48.810;9.012;2022-12-18T10:26:24;98088.00;;;-4.70
8227;BMP180;4154;48.810;9.012;2022-12-18T10:28:52;98090.00;;;-4.60
8227;BMP180;4154;48.810;9.012;2022-12-18T10:31:23;98081.00;;;-4.40
8227;BMP180;4154;48.810;9.012;2022-12-18T10:33:48;98085.00;;;-4.40
8227;BMP180;4154;48.810;9.012;2022-12-18T10:36:15;98089.00;;;-4.30
8227;BMP180;4154;48.810;9.012;2022-12-18T10:38:41;98068.00;;;-4.30
8227;BMP180;4154;48.810;9.012;2022-12-18T10:41:25;98074.00;;;-4.10
8227;BMP180;4154;48.810;9.012;2022-12-18T10:44:21;98077.00;;;-4.10
8227;BMP180;4154;48.810;9.012;2022-12-18T10:46:53;98083.00;;;-4.00
8227;BMP180;4154;48.810;9.012;2022-12-18T10:49:29;98091.00;;;-3.90
8227;BMP180;4154;48.810;9.012;2022-12-18T10:52:28;98088.00;;;-3.90
8227;BMP180;4154;48.810;9.012;2022-12-18T10:55:13;98085.00;;;-3.80
8227;BMP180;4154;48.810;9.012;2022-12-18T10:57:41;98076.00;;;-3.70
8227;BMP180;4154;48.810;9.012;2022-12-18T11:00:30;98071.00;;;-3.60
8227;BMP180;4154;48.810;9.012;2022-12-18T11:02:56;98064.00;;;-3.60
8227;BMP180;4154;48.810;9.012;2022-12-18T11:05:28;98064.00;;;-3.50
8227;BMP180;4154;48.810;9.012;2022-12-18T11:07:55;98062.00;;;-3.40
8227;BMP180;4154;48.810;9.012;2022-12-18T11:10:31;98054.00;;;-3.40
8227;BMP180;4154;48.810;9.012;2022-12-18T11:13:17;98054.00;;;-3.30
8227;BMP180;4154;48.810;9.012;2022-12-18T11:15:44;98053.00;;;-3.30
8227;BMP180;4154;48.810;9.012;2022-12-18T11:18:32;98066.00;;;-3.20
8227;BMP180;4154;48.810;9.012;2022-12-18T11:21:09;98055.00;;;-3.10
8227;BMP180;4154;48.810;9.012;2022-12-18T11:23:50;98049.00;;;-3.10
8227;BMP180;4154;48.810;9.012;2022-12-18T11:26:17;98053.00;;;-3.00
8227;BMP180;4154;48.810;9.012;2022-12-18T11:28:47;98054.00;;;-3.00
8227;BMP180;4154;48.810;9.012;2022-12-18T11:31:29;98050.00;;;-3.00
8227;BMP180;4154;48.810;9.012;2022-12-18T11:34:29;98040.00;;;-2.90
8227;BMP180;4154;48.810;9.012;2022-12-18T11:36:58;98055.00;;;-2.90
8227;BMP180;4154;48.810;9.012;2022-12-18T11:39:37;98046.00;;;-2.80
8227;BMP180;4154;48.810;9.012;2022-12-18T11:42:52;98036.00;;;-2.80
8227;BMP180;4154;48.810;9.012;2022-12-18T11:45:36;98041.00;;;-2.80
8227;BMP180;4154;48.810;9.012;2022-12-18T11:51:00;98043.00;;;-2.60
8227;BMP180;4154;48.810;9.012;2022-12-18T11:53:29;98047.00;;;-2.60
8227;BMP180;4154;48.810;9.012;2022-12-18T11:56:30;98037.00;;;-2.50
8227;BMP180;4154;48.810;9.012;2022-12-18T12:01:50;98037.00;;;-2.40
8227;BMP180;4154;48.810;9.012;2022-12-18T12:04:35;98021.00;;;-2.40
8227;BMP180;4154;48.810;9.012;2022-12-18T12:07:45;98032.00;;;-2.40
8227;BMP180;4154;48.810;9.012;2022-12-18T12:10:32;98027.00;;;-2.40
8227;BMP180;4154;48.810;9.012;2022-12-18T12:13:31;98006.00;;;-2.30
8227;BMP180;4154;48.810;9.012;2022-12-18T12:16:17;98010.00;;;-2.30
8227;BMP180;4154;48.810;9.012;2022-12-18T12:21:28;98005.00;;;-2.10
8227;BMP180;4154;48.810;9.012;2022-12-18T12:29:49;98013.00;;;-1.90
8227;BMP180;4154;48.810;9.012;2022-12-18T12:32:50;98017.00;;;-1.90
8227;BMP180;4154;48.810;9.012;2022-12-18T12:38:22;98024.00;;;-1.90
8227;BMP180;4154;48.810;9.012;2022-12-18T12:41:04;98029.00;;;-1.80
8227;BMP180;4154;48.810;9.012;2022-12-18T12:43:44;98025.00;;;-1.80
8227;BMP180;4154;48.810;9.012;2022-12-18T12:46:16;98036.00;;;-1.80
8227;BMP180;4154;48.810;9.012;2022-12-18T12:48:49;98030.00;;;-1.80
8227;BMP180;4154;48.810;9.012;2022-12-18T12:51:25;98027.00;;;-1.80
8227;BMP180;4154;48.810;9.012;2022-12-18T12:53:53;98034.00;;;-1.70
8227;BMP180;4154;48.810;9.012;2022-12-18T12:56:21;98037.00;;;-1.60
8227;BMP180;4154;48.810;9.012;2022-12-18T12:59:28;98038.00;;;-1.60
8227;BMP180;4154;48.810;9.012;2022-12-18T13:07:41;98051.00;;;-1.50
8227;BMP180;4154;48.810;9.012;2022-12-18T13:15:28;98036.00;;;-1.30
8227;BMP180;4154;48.810;9.012;2022-12-18T13:18:10;98043.00;;;-1.30
8227;BMP180;4154;48.810;9.012;2022-12-18T13:23:36;98031.00;;;-1.30
8227;BMP180;4154;48.810;9.012;2022-12-18T13:34:20;98027.00;;;-1.60
8227;BMP180;4154;48.810;9.012;2022-12-18T13:36:52;98007.00;;;-1.60
8227;BMP180;4154;48.810;9.012;2022-12-18T13:52:02;98007.00;;;-1.60
8227;BMP180;4154;48.810;9.012;2022-12-18T14:10:55;98009.00;;;-1.70
8227;BMP180;4154;48.810;9.012;2022-12-18T14:36:30;98014.00;;;-1.70
8227;BMP180;4154;48.810;9.012;2022-12-18T14:40:04;98023.00;;;-1.80
8227;BMP180;4154;48.810;9.012;2022-12-18T14:47:31;98040.00;;;-1.90
8227;BMP180;4154;48.810;9.012;2022-12-18T14:53:48;98024.00;;;-2.10
8227;BMP180;4154;48.810;9.012;2022-12-18T15:00:07;98035.00;;;-2.20
8227;BMP180;4154;48.810;9.012;2022-12-18T15:02:56;98026.00;;;-2.20
8227;BMP180;4154;48.810;9.012;2022-12-18T15:06:30;98033.00;;;-2.20
8227;BMP180;4154;48.810;9.012;2022-12-18T15:09:59;98022.00;;;-2.20
8227;BMP180;4154;48.810;9.012;2022-12-18T15:18:35;98010.00;;;-2.40
8227;BMP180;4154;48.810;9.012;2022-12-18T15:24:20;98016.00;;;-2.50
8227;BMP180;4154;48.810;9.012;2022-12-18T15:26:53;98002.00;;;-2.60
8227;BMP180;4154;48.810;9.012;2022-12-18T15:29:23;98021.00;;;-2.60
8227;BMP180;4154;48.810;9.012;2022-12-18T15:32:10;98008.00;;;-2.60
8227;BMP180;4154;48.810;9.012;2022-12-18T15:34:43;98009.00;;;-2.60
8227;BMP180;4154;48.810;9.012;2022-12-18T15:37:09;98024.00;;;-2.60
8227;BMP180;4154;48.810;9.012;2022-12-18T15:39:36;98002.00;;;-2.60
8227;BMP180;4154;48.810;9.012;2022-12-18T15:42:02;98006.00;;;-2.70
8227;BMP180;4154;48.810;9.012;2022-12-18T15:44:52;98009.00;;;-2.70
8227;BMP180;4154;48.810;9.012;2022-12-18T15:47:18;98008.00;;;-2.70
8227;BMP180;4154;48.810;9.012;2022-12-18T15:49:43;98015.00;;;-2.70
8227;BMP180;4154;48.810;9.012;2022-12-18T15:52:13;98008.00;;;-2.70
8227;BMP180;4154;48.810;9.012;2022-12-18T15:54:39;98014.00;;;-2.70
8227;BMP180;4154;48.810;9.012;2022-12-18T15:57:23;98008.00;;;-2.80
8227;BMP180;4154;48.810;9.012;2022-12-18T15:59:50;98011.00;;;-2.80
8227;BMP180;4154;48.810;9.012;2022-12-18T16:02:19;98004.00;;;-2.80
8227;BMP180;4154;48.810;9.012;2022-12-18T16:04:45;98007.00;;;-2.90
8227;BMP180;4154;48.810;9.012;2022-12-18T16:07:12;98006.00;;;-2.90
8227;BMP180;4154;48.810;9.012;2022-12-18T16:09:38;98008.00;;;-2.90
8227;BMP180;4154;48.810;9.012;2022-12-18T16:12:18;98007.00;;;-3.00
8227;BMP180;4154;48.810;9.012;2022-12-18T16:14:45;98016.00;;;-3.00
8227;BMP180;4154;48.810;9.012;2022-12-18T16:17:13;98015.00;;;-3.00
8227;BMP180;4154;48.810;9.012;2022-12-18T16:19:40;98009.00;;;-3.00
8227;BMP180;4154;48.810;9.012;2022-12-18T16:22:21;98012.00;;;-3.00
8227;BMP180;4154;48.810;9.012;2022-12-18T16:24:48;97997.00;;;-2.90
8227;BMP180;4154;48.810;9.012;2022-12-18T16:27:15;98001.00;;;-2.90
8227;BMP180;4154;48.810;9.012;2022-12-18T16:29:41;98007.00;;;-2.90
8227;BMP180;4154;48.810;9.012;2022-12-18T16:32:13;97999.00;;;-3.00
8227;BMP180;4154;48.810;9.012;2022-12-18T16:34:41;98003.00;;;-3.00
8227;BMP180;4154;48.810;9.012;2022-12-18T16:37:33;97999.00;;;-2.90
8227;BMP180;4154;48.810;9.012;2022-12-18T16:40:13;97999.00;;;-2.90
8227;BMP180;4154;48.810;9.012;2022-12-18T16:42:47;97997.00;;;-2.90
8227;BMP180;4154;48.810;9.012;2022-12-18T16:45:16;97995.00;;;-2.90
8227;BMP180;4154;48.810;9.012;2022-12-18T16:47:43;97992.00;;;-2.90
8227;BMP180;4154;48.810;9.012;2022-12-18T16:50:10;97997.00;;;-2.90
8227;BMP180;4154;48.810;9.012;2022-12-18T16:52:37;98000.00;;;-2.90
8227;BMP180;4154;48.810;9.012;2022-12-18T16:55:03;97986.00;;;-2.90
8227;BMP180;4154;48.810;9.012;2022-12-18T16:57:29;97980.00;;;-2.80
8227;BMP180;4154;48.810;9.012;2022-12-18T16:59:55;97986.00;;;-2.80
8227;BMP180;4154;48.810;9.012;2022-12-18T17:02:24;97979.00;;;-2.70
8227;BMP180;4154;48.810;9.012;2022-12-18T17:04:54;97987.00;;;-2.70